San Diego, California
Traffic Map
Current Weather Conditions
San Diego, California
Few Clouds
Few Clouds
57°
Feels Like: 57°
Wind Chill: 57° Ceiling: Unl
Heat Index: 57° Visibility: 9mi
Dew Point: 48° Wind: 0mph
Humidity: 72% Direction: ° ()
Pressure: 29.99in Gusts: 0mph
Raw Report DataKSAN 140751Z 00000KT 9SM FEW250 14/09 A2999 RMK AO2 SLP154 T01390089 402560094
Traffic Incident Summary
Active as of:
Severity:
Category:
InformationThere was an issue retrieving the traffic information for this location. Please try a different location or try again shortly.
Advertisements